Time;durP1;ratioP1;P1;durP2;ratioP2;P2;SDS_P1;SDS_P2;PMS_P1;PMS_P2;Temp;Humidity;BMP_temperature;BMP_pressure;BME280_temperature;BME280_humidity;BME280_pressure;Samples;Min_cycle;Max_cycle;Signal;HPM_P1;HPM_P2
2022/08/26 00:01:35;;;;;;;1.60;1.23;;;19.10;99.90;;;;;;5054269;28;20053;-73
2022/08/26 00:04:01;;;;;;;7.35;2.85;;;19.10;99.90;;;;;;5054344;28;20507;-73
2022/08/26 00:06:26;;;;;;;7.47;4.72;;;19.10;99.90;;;;;;5053876;28;20052;-74
2022/08/26 00:08:52;;;;;;;3.42;2.30;;;19.00;99.90;;;;;;5053909;28;20037;-74
2022/08/26 00:11:18;;;;;;;1.60;0.98;;;18.90;99.90;;;;;;5054532;28;20045;-74
2022/08/26 00:13:44;;;;;;;3.42;1.52;;;18.80;99.90;;;;;;5054450;28;20073;-73
2022/08/26 00:16:10;;;;;;;1.67;1.27;;;18.80;99.90;;;;;;5054094;28;20086;-73
2022/08/26 00:18:37;;;;;;;2.25;1.85;;;18.70;99.90;;;;;;5053952;28;20045;-73
2022/08/26 00:21:04;;;;;;;7.22;3.10;;;18.70;99.90;;;;;;5053853;28;20084;-73
2022/08/26 00:23:29;;;;;;;3.20;2.10;;;18.70;99.90;;;;;;5054042;28;20041;-73
2022/08/26 00:25:56;;;;;;;2.53;1.25;;;18.70;99.90;;;;;;5035837;28;20052;-73
2022/08/26 00:28:21;;;;;;;3.45;2.20;;;18.50;99.90;;;;;;5053584;28;20087;-74
2022/08/26 00:30:48;;;;;;;7.03;2.30;;;18.70;99.90;;;;;;5053968;28;20045;-74
2022/08/26 00:33:16;;;;;;;1.88;1.58;;;18.60;99.90;;;;;;5053676;28;20507;-73
2022/08/26 00:35:43;;;;;;;2.03;1.73;;;18.60;99.90;;;;;;5053644;28;20506;-74
2022/08/26 00:38:09;;;;;;;3.60;2.47;;;18.50;99.90;;;;;;5052948;28;20045;-73
2022/08/26 00:40:38;;;;;;;7.65;3.20;;;18.50;99.90;;;;;;5053650;28;20511;-73
2022/08/26 00:43:05;;;;;;;2.45;2.00;;;18.50;99.90;;;;;;5053715;28;20045;-74
2022/08/26 00:45:38;;;;;;;4.18;2.30;;;18.70;99.90;;;;;;5053570;28;20500;-74
2022/08/26 00:48:05;;;;;;;2.55;2.08;;;18.50;99.90;;;;;;5052929;28;20136;-74
2022/08/26 00:50:36;;;;;;;2.88;2.38;;;18.60;99.90;;;;;;5053140;28;20136;-73
2022/08/26 00:53:05;;;;;;;6.10;3.95;;;18.70;99.90;;;;;;5053560;28;20076;-73
2022/08/26 00:55:36;;;;;;;3.40;2.90;;;18.80;99.90;;;;;;5053598;28;20479;-73
2022/08/26 00:58:02;;;;;;;6.32;4.93;;;18.90;99.90;;;;;;5052781;28;20037;-74
2022/08/26 01:00:30;;;;;;;2.13;1.88;;;19.10;99.90;;;;;;5053033;28;20095;-73
2022/08/26 01:02:58;;;;;;;2.30;1.92;;;19.00;99.90;;;;;;5053244;28;20080;-73
2022/08/26 01:05:24;;;;;;;4.65;2.55;;;19.10;99.90;;;;;;5053534;28;20480;-74
2022/08/26 01:07:49;;;;;;;4.05;2.85;;;19.00;99.90;;;;;;5052870;28;20052;-73
2022/08/26 01:10:23;;;;;;;3.08;2.30;;;19.10;99.90;;;;;;5053206;28;20052;-74
2022/08/26 01:12:59;;;;;;;9.38;3.67;;;19.10;99.90;;;;;;5035362;28;20041;-74
2022/08/26 01:15:32;;;;;;;2.28;1.98;;;19.10;99.90;;;;;;5053065;28;20041;-73
2022/08/26 01:17:58;;;;;;;3.30;2.13;;;19.10;99.90;;;;;;5052018;28;20086;-74
2022/08/26 01:20:30;;;;;;;1.92;1.63;;;19.10;99.90;;;;;;5052290;28;20051;-73
2022/08/26 01:23:03;;;;;;;3.22;2.20;;;19.20;99.90;;;;;;5052343;28;20053;-74
2022/08/26 01:25:32;;;;;;;2.00;1.83;;;19.20;99.90;;;;;;5052468;28;20049;-74
2022/08/26 01:28:01;;;;;;;4.07;2.30;;;19.20;99.90;;;;;;5052353;28;20041;-73
2022/08/26 01:30:28;;;;;;;3.42;3.05;;;19.30;99.90;;;;;;5052560;28;20064;-74
2022/08/26 01:32:56;;;;;;;2.65;1.60;;;19.40;99.90;;;;;;5052499;28;20087;-74
2022/08/26 01:35:22;;;;;;;4.60;3.45;;;19.30;99.90;;;;;;5052446;28;20095;-74
2022/08/26 01:37:52;;;;;;;8.10;4.22;;;19.30;99.90;;;;;;5051932;28;20059;-74
2022/08/26 01:40:23;;;;;;;6.95;2.20;;;19.50;99.90;;;;;;5048379;28;20049;-73
2022/08/26 01:42:49;;;;;;;4.50;2.47;;;19.50;99.90;;;;;;5052170;28;20490;-74
2022/08/26 01:45:24;;;;;;;2.80;1.92;;;19.50;99.90;;;;;;5052390;28;20048;-73
2022/08/26 01:47:53;;;;;;;4.13;1.93;;;19.50;99.90;;;;;;5052055;28;20056;-74
2022/08/26 01:50:27;;;;;;;4.95;3.03;;;19.50;99.90;;;;;;5056114;28;20049;-74
2022/08/26 01:52:54;;;;;;;3.63;2.70;;;19.50;99.90;;;;;;5056909;28;20376;-73
2022/08/26 01:55:23;;;;;;;7.68;2.42;;;19.50;99.90;;;;;;5056677;28;20136;-73
2022/08/26 01:57:52;;;;;;;2.95;2.00;;;19.60;99.90;;;;;;5059355;22;20576;-74
2022/08/26 02:00:18;;;;;;;3.88;3.58;;;19.60;99.90;;;;;;5017349;28;20045;-73
2022/08/26 02:02:46;;;;;;;3.50;2.53;;;19.40;99.90;;;;;;5040255;28;20048;-74
2022/08/26 02:05:19;;;;;;;3.05;2.47;;;19.40;99.90;;;;;;5039937;28;20076;-73
2022/08/26 02:07:46;;;;;;;2.20;1.73;;;19.30;99.90;;;;;;5030677;28;20091;-74
2022/08/26 02:10:14;;;;;;;9.50;2.03;;;19.30;99.90;;;;;;5039898;28;20080;-74
2022/08/26 02:12:40;;;;;;;3.55;2.75;;;19.30;99.90;;;;;;5041660;28;20125;-73
2022/08/26 02:15:08;;;;;;;11.20;4.95;;;19.30;99.90;;;;;;5040020;28;20048;-73
2022/08/26 02:17:40;;;;;;;3.67;3.25;;;19.30;99.90;;;;;;5039830;28;20084;-72
2022/08/26 02:20:07;;;;;;;6.63;4.22;;;19.40;99.90;;;;;;5041412;28;20063;-73
2022/08/26 02:22:34;;;;;;;1.83;1.67;;;19.50;99.90;;;;;;5039183;28;20041;-74
2022/08/26 02:25:09;;;;;;;4.95;2.53;;;19.50;99.90;;;;;;5040973;28;20045;-73
2022/08/26 02:27:35;;;;;;;3.15;2.47;;;19.60;99.90;;;;;;5038310;28;20037;-73
2022/08/26 02:30:24;;;;;;;2.60;2.22;;;19.50;99.90;;;;;;5040735;28;20105;-73
2022/08/26 02:32:50;;;;;;;5.57;3.08;;;19.60;99.90;;;;;;5020917;28;20046;-73
2022/08/26 02:35:17;;;;;;;9.40;4.75;;;19.60;99.90;;;;;;5002369;28;20060;-71
2022/08/26 02:37:43;;;;;;;2.38;2.17;;;19.60;99.90;;;;;;5029271;28;20448;-72
2022/08/26 02:40:11;;;;;;;2.55;1.92;;;19.60;99.90;;;;;;5038242;28;20049;-73
2022/08/26 02:42:36;;;;;;;2.05;1.45;;;19.60;99.90;;;;;;5038514;28;20045;-73
2022/08/26 02:45:03;;;;;;;4.43;2.85;;;19.50;99.90;;;;;;5038738;28;20056;-73
2022/08/26 02:47:30;;;;;;;2.90;1.85;;;19.50;99.90;;;;;;5039265;28;20042;-74
2022/08/26 02:49:56;;;;;;;4.45;2.58;;;19.50;99.90;;;;;;5039282;28;20046;-73
2022/08/26 02:52:21;;;;;;;4.07;2.17;;;19.50;99.90;;;;;;5038118;28;20496;-73
2022/08/26 02:54:47;;;;;;;2.58;1.42;;;19.50;99.90;;;;;;5039931;28;20041;-73
2022/08/26 02:57:13;;;;;;;3.83;2.55;;;19.50;99.90;;;;;;5020619;28;20054;-74
2022/08/26 02:59:39;;;;;;;14.15;4.00;;;19.50;99.90;;;;;;5039274;28;20088;-73
2022/08/26 03:02:06;;;;;;;3.63;2.05;;;19.80;99.90;;;;;;5039740;28;20041;-73
2022/08/26 03:04:32;;;;;;;2.28;2.08;;;19.60;99.90;;;;;;5038587;28;20400;-72
2022/08/26 03:06:58;;;;;;;2.00;1.40;;;19.60;99.90;;;;;;5038248;28;20043;-73
2022/08/26 03:09:24;;;;;;;4.78;3.35;;;19.60;99.90;;;;;;5037916;28;20431;-73
2022/08/26 03:11:50;;;;;;;3.30;2.40;;;19.60;99.90;;;;;;5037860;28;20045;-74
2022/08/26 03:14:16;;;;;;;26.02;3.33;;;19.70;99.90;;;;;;5038041;28;20040;-73
2022/08/26 03:16:42;;;;;;;4.05;2.25;;;19.70;99.90;;;;;;5038621;28;20041;-75
2022/08/26 03:19:08;;;;;;;3.17;2.88;;;19.70;99.90;;;;;;5038075;28;20069;-74
2022/08/26 03:21:35;;;;;;;3.50;2.65;;;19.70;99.90;;;;;;5038171;28;20041;-73
2022/08/26 03:24:01;;;;;;;6.85;3.17;;;19.70;99.90;;;;;;5037923;28;20067;-73
2022/08/26 03:26:27;;;;;;;4.03;3.38;;;19.70;99.90;;;;;;5037743;28;20049;-74
2022/08/26 03:31:38;;;;;;;7.55;2.25;;;19.70;99.90;;;;;;5037797;28;20057;-72
2022/08/26 03:34:04;;;;;;;4.93;3.05;;;19.70;99.90;;;;;;5036887;28;20393;-72
2022/08/26 03:36:30;;;;;;;6.85;2.60;;;19.70;99.90;;;;;;5037958;28;20037;-74
2022/08/26 03:38:55;;;;;;;6.68;2.92;;;19.70;99.90;;;;;;5037982;28;20096;-73
2022/08/26 03:41:21;;;;;;;6.85;3.50;;;19.80;99.90;;;;;;5037034;28;20464;-73
2022/08/26 03:43:49;;;;;;;4.00;2.67;;;19.80;99.90;;;;;;5037079;28;20047;-74
2022/08/26 03:46:15;;;;;;;1.63;1.52;;;19.80;99.90;;;;;;5037174;28;20045;-74
2022/08/26 03:48:41;;;;;;;1.77;1.58;;;19.70;99.90;;;;;;5037254;28;20172;-73
2022/08/26 03:51:15;;;;;;;7.28;3.72;;;19.80;99.90;;;;;;5037514;28;20099;-74
2022/08/26 03:53:41;;;;;;;3.50;2.33;;;19.80;99.90;;;;;;5037580;28;20046;-72
2022/08/26 03:56:07;;;;;;;4.45;2.38;;;19.80;99.90;;;;;;5037526;28;20052;-74
2022/08/26 03:58:33;;;;;;;2.20;1.70;;;19.80;99.90;;;;;;5037386;28;20084;-73
2022/08/26 04:00:59;;;;;;;3.13;2.53;;;19.80;99.90;;;;;;5036913;28;20099;-72
2022/08/26 04:06:10;;;;;;;3.92;2.90;;;19.80;99.90;;;;;;5036312;28;20407;-73
2022/08/26 04:08:36;;;;;;;3.22;2.70;;;19.90;99.90;;;;;;5018142;28;20535;-74
2022/08/26 04:11:02;;;;;;;6.05;2.50;;;19.80;99.90;;;;;;5036070;28;20038;-72
2022/08/26 04:13:29;;;;;;;3.25;2.22;;;19.80;99.90;;;;;;5037558;28;20407;-73
2022/08/26 04:15:54;;;;;;;2.50;2.25;;;19.80;99.90;;;;;;5039571;28;20098;-72
2022/08/26 04:18:20;;;;;;;7.63;2.20;;;19.80;99.90;;;;;;5037904;28;20045;-73
2022/08/26 04:20:46;;;;;;;2.83;2.28;;;19.80;99.90;;;;;;5038829;28;20052;-74
2022/08/26 04:23:12;;;;;;;1.90;1.17;;;19.80;99.90;;;;;;5035638;28;20041;-73
2022/08/26 04:25:39;;;;;;;2.33;2.13;;;19.70;99.90;;;;;;5032270;28;20053;-72
2022/08/26 04:28:04;;;;;;;1.63;1.52;;;19.80;99.90;;;;;;5029993;28;20049;-72
2022/08/26 04:30:31;;;;;;;6.22;2.38;;;19.80;99.90;;;;;;5033765;28;20042;-74
2022/08/26 04:32:57;;;;;;;2.92;2.10;;;19.80;99.90;;;;;;5025435;28;20048;-73
2022/08/26 04:35:23;;;;;;;4.43;2.47;;;19.80;99.90;;;;;;5011663;28;20053;-74
2022/08/26 04:37:50;;;;;;;2.35;1.40;;;19.80;99.90;;;;;;5026613;28;20120;-73
2022/08/26 04:40:16;;;;;;;3.92;1.90;;;19.80;99.90;;;;;;5009901;28;20088;-74
2022/08/26 04:42:41;;;;;;;1.85;1.40;;;19.80;99.90;;;;;;5027714;28;20504;-73
2022/08/26 04:45:07;;;;;;;0.85;0.85;;;20.10;99.90;;;;;;5023159;28;20494;-72
2022/08/26 04:47:33;;;;;;;1.85;1.08;;;19.80;99.90;;;;;;5028420;28;20496;-72
2022/08/26 04:49:59;;;;;;;3.90;1.33;;;19.90;99.90;;;;;;5027232;28;20030;-73
2022/08/26 04:52:25;;;;;;;2.28;1.83;;;19.90;99.90;;;;;;5036901;28;20095;-72
2022/08/26 04:54:51;;;;;;;2.40;1.42;;;19.90;99.90;;;;;;5023729;28;20378;-72
2022/08/26 04:57:17;;;;;;;1.95;1.38;;;19.90;99.90;;;;;;5035315;28;20049;-74
2022/08/26 04:59:42;;;;;;;2.60;1.52;;;19.90;99.90;;;;;;5035182;28;20046;-73
2022/08/26 05:02:08;;;;;;;2.50;1.65;;;19.90;99.90;;;;;;5035343;28;20495;-72
2022/08/26 05:04:33;;;;;;;4.18;2.88;;;19.90;99.90;;;;;;5035318;28;20180;-74
2022/08/26 05:07:00;;;;;;;1.60;1.02;;;19.90;99.90;;;;;;5033975;28;20502;-72
2022/08/26 05:09:25;;;;;;;3.00;2.17;;;19.90;99.90;;;;;;5034405;28;20048;-73
2022/08/26 05:11:51;;;;;;;3.60;1.58;;;20.00;99.90;;;;;;5035085;28;20124;-73
2022/08/26 05:14:17;;;;;;;2.90;2.08;;;20.00;99.90;;;;;;5021375;28;20523;-74
2022/08/26 05:16:43;;;;;;;2.15;1.60;;;20.00;99.90;;;;;;5012327;28;20049;-72
2022/08/26 05:19:08;;;;;;;1.60;1.50;;;20.00;99.90;;;;;;5031585;28;20051;-74
2022/08/26 05:21:34;;;;;;;3.13;1.63;;;20.00;99.90;;;;;;5031558;28;20111;-74
2022/08/26 05:24:00;;;;;;;4.63;1.98;;;20.00;99.90;;;;;;5033047;28;20087;-73
2022/08/26 05:26:28;;;;;;;3.60;1.52;;;20.00;99.90;;;;;;5031954;28;20428;-73
2022/08/26 05:28:55;;;;;;;3.35;2.25;;;19.90;99.90;;;;;;5031705;28;20053;-73
2022/08/26 05:31:30;;;;;;;3.17;2.50;;;20.00;99.90;;;;;;5031030;28;20057;-73
2022/08/26 05:33:56;;;;;;;3.03;1.75;;;20.00;99.90;;;;;;5021740;28;20124;-72
2022/08/26 05:36:24;;;;;;;4.18;2.28;;;20.00;99.90;;;;;;5014548;28;20046;-73
2022/08/26 05:38:50;;;;;;;2.55;1.83;;;20.00;99.90;;;;;;5015050;28;20117;-72
2022/08/26 05:41:19;;;;;;;2.85;2.30;;;20.00;99.90;;;;;;5014684;28;20575;-73
2022/08/26 05:43:45;;;;;;;1.70;1.05;;;20.10;99.90;;;;;;5015239;28;20042;-73
2022/08/26 05:46:11;;;;;;;1.63;1.20;;;20.10;99.90;;;;;;5015974;28;20412;-73
2022/08/26 05:48:37;;;;;;;2.15;1.67;;;20.30;99.90;;;;;;5015362;28;20121;-73
2022/08/26 05:51:05;;;;;;;1.73;1.30;;;20.10;99.90;;;;;;5015618;28;20155;-74
2022/08/26 05:53:31;;;;;;;4.13;2.15;;;20.20;99.90;;;;;;5015391;28;20388;-74
2022/08/26 05:55:57;;;;;;;1.67;1.58;;;20.10;99.90;;;;;;5015311;28;20084;-73
2022/08/26 05:58:24;;;;;;;2.25;2.05;;;20.20;99.90;;;;;;5025112;28;20056;-73
2022/08/26 06:00:56;;;;;;;2.05;1.70;;;20.20;99.90;;;;;;5025929;28;20076;-73
2022/08/26 06:03:22;;;;;;;8.38;2.05;;;20.30;99.90;;;;;;5025465;28;20069;-74
2022/08/26 06:05:47;;;;;;;6.57;2.05;;;20.30;99.90;;;;;;5023232;28;20038;-75
2022/08/26 06:08:13;;;;;;;1.55;1.08;;;20.30;99.90;;;;;;5024017;28;20073;-74
2022/08/26 06:10:58;;;;;;;0.88;0.88;;;20.40;99.90;;;;;;5024561;28;20120;-73
2022/08/26 06:13:26;;;;;;;5.82;3.60;;;20.40;99.90;;;;;;4998835;28;20384;-75
2022/08/26 06:15:53;;;;;;;14.50;2.08;;;20.50;99.90;;;;;;5034407;28;20128;-73
2022/08/26 06:18:26;;;;;;;9.52;2.50;;;20.50;99.90;;;;;;5034216;28;20045;-73
2022/08/26 06:20:53;;;;;;;3.63;2.35;;;20.50;99.90;;;;;;5034512;28;20045;-73
2022/08/26 06:26:04;;;;;;;3.10;2.53;;;20.60;99.90;;;;;;5032895;28;20518;-73
2022/08/26 06:28:30;;;;;;;2.85;2.22;;;20.80;99.90;;;;;;5032464;28;20087;-73
2022/08/26 06:30:56;;;;;;;1.08;0.80;;;20.90;99.90;;;;;;5032880;28;20092;-74
2022/08/26 06:33:23;;;;;;;2.42;2.10;;;21.20;99.90;;;;;;5032524;28;20508;-74
2022/08/26 06:35:49;;;;;;;1.92;1.48;;;21.20;99.90;;;;;;5034754;28;20439;-72
2022/08/26 06:38:16;;;;;;;2.75;1.55;;;21.10;99.90;;;;;;5036458;28;20124;-74
2022/08/26 06:40:51;;;;;;;1.65;1.35;;;21.00;99.90;;;;;;5036490;28;20125;-73
2022/08/26 06:43:22;;;;;;;5.30;2.05;;;21.20;99.90;;;;;;5036391;28;20049;-73
2022/08/26 06:45:48;;;;;;;1.92;1.52;;;21.30;99.90;;;;;;5035792;28;20057;-72
2022/08/26 06:48:15;;;;;;;1.13;1.02;;;21.30;99.90;;;;;;5032937;28;20298;-73
2022/08/26 06:50:42;;;;;;;4.07;2.88;;;21.30;99.90;;;;;;5033196;28;20045;-73
2022/08/26 06:53:09;;;;;;;3.63;1.35;;;21.40;99.90;;;;;;5030936;28;20121;-73
2022/08/26 06:55:44;;;;;;;3.40;1.23;;;21.50;99.90;;;;;;5015534;28;20046;-71
2022/08/26 06:58:10;;;;;;;1.67;1.05;;;21.50;99.90;;;;;;5015320;28;20096;-74
2022/08/26 07:00:37;;;;;;;2.42;1.05;;;21.70;99.90;;;;;;5032561;28;20469;-73
2022/08/26 07:03:04;;;;;;;0.98;0.90;;;21.80;99.90;;;;;;5032218;28;20100;-72
2022/08/26 07:05:30;;;;;;;1.35;1.25;;;21.90;99.90;;;;;;5032991;28;20049;-75
2022/08/26 07:07:56;;;;;;;2.10;1.85;;;21.90;99.90;;;;;;5032938;28;20060;-75
2022/08/26 07:10:23;;;;;;;0.93;0.77;;;22.00;99.90;;;;;;5032713;28;20563;-74
2022/08/26 07:12:48;;;;;;;3.75;1.35;;;22.50;99.90;;;;;;5032671;28;20060;-74
2022/08/26 07:15:14;;;;;;;1.83;1.15;;;22.60;99.90;;;;;;5033591;28;20037;-74
2022/08/26 07:17:40;;;;;;;1.55;0.88;;;22.20;99.90;;;;;;5031756;28;20049;-74
2022/08/26 07:20:07;;;;;;;1.63;1.05;;;22.30;99.90;;;;;;5024475;28;20408;-73
2022/08/26 07:22:34;;;;;;;2.72;2.22;;;22.10;99.90;;;;;;5023671;28;20056;-73
2022/08/26 07:25:00;;;;;;;3.22;1.63;;;22.10;99.90;;;;;;5036427;28;20076;-74
2022/08/26 07:27:26;;;;;;;2.22;1.35;;;22.20;99.90;;;;;;5036726;28;20103;-74
2022/08/26 07:29:55;;;;;;;0.05;0.05;;;22.20;99.90;;;;;;5036237;28;20435;-74
2022/08/26 07:32:21;;;;;;;0.65;0.65;;;22.10;99.90;;;;;;5034525;28;20052;-74
2022/08/26 07:34:47;;;;;;;2.13;0.82;;;22.00;99.90;;;;;;5026173;28;20037;-74
2022/08/26 07:37:14;;;;;;;7.80;1.42;;;21.90;99.90;;;;;;4998972;28;20046;-72
2022/08/26 07:39:40;;;;;;;1.42;0.85;;;22.00;99.90;;;;;;5015718;28;20121;-73
2022/08/26 07:42:07;;;;;;;1.45;1.25;;;22.00;99.90;;;;;;5016457;28;20077;-73
2022/08/26 07:44:34;;;;;;;2.65;1.95;;;22.00;99.90;;;;;;5015663;28;20508;-72
2022/08/26 07:46:59;;;;;;;1.98;1.35;;;21.80;99.90;;;;;;5015571;28;20057;-74
2022/08/26 07:49:26;;;;;;;0.60;0.55;;;21.80;99.90;;;;;;5035172;28;20045;-74
2022/08/26 07:51:52;;;;;;;1.10;1.00;;;21.60;99.90;;;;;;5034907;28;20037;-73
2022/08/26 07:54:18;;;;;;;2.95;1.70;;;21.80;99.90;;;;;;5034356;28;20050;-74
2022/08/26 07:56:44;;;;;;;2.65;0.82;;;21.80;99.90;;;;;;5034597;28;20045;-73
2022/08/26 07:59:11;;;;;;;1.23;0.98;;;21.90;99.90;;;;;;5017358;28;20056;-74
2022/08/26 08:01:37;;;;;;;1.60;0.70;;;21.90;99.90;;;;;;5035105;28;20041;-73
2022/08/26 08:04:04;;;;;;;0.85;0.60;;;22.00;99.90;;;;;;5035079;28;20104;-72
2022/08/26 08:06:30;;;;;;;0.20;0.20;;;21.90;99.90;;;;;;5034597;28;20053;-74
2022/08/26 08:08:56;;;;;;;0.75;0.57;;;22.10;99.90;;;;;;5035352;28;20047;-73
2022/08/26 08:11:23;;;;;;;1.67;1.38;;;22.00;99.90;;;;;;5017529;28;20045;-75
2022/08/26 08:13:50;;;;;;;0.75;0.70;;;21.90;99.90;;;;;;5034842;28;20507;-72
2022/08/26 08:16:16;;;;;;;0.90;0.70;;;21.80;99.90;;;;;;5035683;28;20037;-73
2022/08/26 08:18:41;;;;;;;0.63;0.63;;;22.00;99.90;;;;;;5035471;28;20103;-73
2022/08/26 08:21:07;;;;;;;1.13;0.60;;;22.10;99.90;;;;;;5035197;28;20101;-73
2022/08/26 08:23:33;;;;;;;0.77;0.73;;;22.10;99.90;;;;;;5034830;28;20042;-74
2022/08/26 08:26:04;;;;;;;4.28;1.95;;;22.30;99.90;;;;;;5025929;28;20386;-73
2022/08/26 08:28:30;;;;;;;1.08;0.75;;;22.60;99.90;;;;;;5015268;28;20050;-74
2022/08/26 08:30:56;;;;;;;0.32;0.28;;;22.70;99.90;;;;;;5014800;28;20606;-73
2022/08/26 08:33:22;;;;;;;1.70;0.73;;;22.90;99.90;;;;;;5016013;28;20053;-74
2022/08/26 08:35:48;;;;;;;1.23;1.13;;;22.80;99.90;;;;;;5014329;28;20042;-73
2022/08/26 08:38:14;;;;;;;1.23;0.50;;;22.70;99.90;;;;;;5015578;28;20053;-74
2022/08/26 08:40:42;;;;;;;1.27;0.57;;;22.60;99.90;;;;;;5014866;28;20042;-73
2022/08/26 08:43:15;;;;;;;1.15;0.75;;;22.30;99.90;;;;;;5014366;28;20049;-73
2022/08/26 08:45:57;;;;;;;0.93;0.43;;;22.20;99.90;;;;;;5014420;28;20046;-74
2022/08/26 08:48:29;;;;;;;0.00;0.00;;;22.20;99.90;;;;;;5014545;28;20053;-74
2022/08/26 08:51:05;;;;;;;0.20;0.20;;;22.10;99.90;;;;;;5014567;28;20041;-73
2022/08/26 08:53:33;;;;;;;1.45;0.57;;;22.10;99.90;;;;;;5015320;28;20057;-74
2022/08/26 08:56:24;;;;;;;0.28;0.28;;;22.00;99.90;;;;;;5015510;28;20102;-73
2022/08/26 08:58:59;;;;;;;3.03;1.27;;;21.90;99.90;;;;;;5015687;28;20133;-71
2022/08/26 09:01:34;;;;;;;0.38;0.38;;;22.00;99.90;;;;;;5014779;28;20041;-73
2022/08/26 09:04:21;;;;;;;3.42;1.55;;;22.10;99.90;;;;;;5021962;28;20060;-74
2022/08/26 09:06:51;;;;;;;0.98;0.70;;;22.40;99.90;;;;;;5027647;28;20049;-73
2022/08/26 09:09:49;;;;;;;0.08;0.03;;;22.40;99.90;;;;;;5026677;28;20476;-74
2022/08/26 09:12:25;;;;;;;0.95;0.38;;;22.60;99.90;;;;;;5032763;28;20052;-74
2022/08/26 09:14:56;;;;;;;0.32;0.30;;;22.60;99.90;;;;;;5028270;28;20120;-75
2022/08/26 09:17:48;;;;;;;2.20;0.45;;;22.60;99.90;;;;;;5031444;28;20049;-74
2022/08/26 09:20:42;;;;;;;1.08;0.93;;;22.30;99.90;;;;;;5030933;28;20046;-73
2022/08/26 09:23:09;;;;;;;0.00;0.00;;;22.00;99.90;;;;;;5025083;28;20467;-74
2022/08/26 09:25:47;;;;;;;1.45;0.75;;;22.00;99.90;;;;;;5009572;28;20042;-72
2022/08/26 09:28:19;;;;;;;1.42;0.73;;;22.10;99.90;;;;;;5023372;28;20099;-72
2022/08/26 09:30:56;;;;;;;0.13;0.10;;;22.10;99.90;;;;;;5031823;28;20562;-73
2022/08/26 09:33:28;;;;;;;16.10;1.10;;;21.80;99.90;;;;;;5027731;28;20377;-73
2022/08/26 09:36:15;;;;;;;2.28;0.85;;;21.90;99.90;;;;;;5028994;28;20055;-73
2022/08/26 09:38:42;;;;;;;1.70;1.00;;;21.90;99.90;;;;;;5029914;28;20435;-74
2022/08/26 09:41:23;;;;;;;12.18;1.48;;;21.90;99.90;;;;;;5035532;28;20037;-73
2022/08/26 09:44:10;;;;;;;0.22;0.15;;;21.80;99.90;;;;;;5049554;28;20079;-72
2022/08/26 09:46:40;;;;;;;0.10;0.10;;;21.90;99.90;;;;;;5049510;28;20048;-75
2022/08/26 09:49:28;;;;;;;0.00;0.00;;;22.00;99.90;;;;;;5049521;28;20168;-74
2022/08/26 09:52:20;;;;;;;0.40;0.40;;;22.10;99.90;;;;;;5025172;28;20124;-74
2022/08/26 09:54:59;;;;;;;0.63;0.30;;;22.20;99.90;;;;;;5029545;28;20099;-72
2022/08/26 09:57:31;;;;;;;0.00;0.00;;;22.30;99.90;;;;;;5029468;28;20364;-75
2022/08/26 09:59:59;;;;;;;1.13;1.05;;;22.00;99.90;;;;;;5023049;28;20053;-73
2022/08/26 10:02:31;;;;;;;0.00;0.00;;;22.10;99.90;;;;;;5023022;28;20056;-73
2022/08/26 10:04:59;;;;;;;0.82;0.40;;;22.10;99.90;;;;;;5029478;28;20042;-74
2022/08/26 10:07:49;;;;;;;0.00;0.00;;;22.20;99.90;;;;;;5029451;28;20081;-72
2022/08/26 10:10:37;;;;;;;2.45;0.50;;;22.30;99.90;;;;;;5030371;28;20056;-73
2022/08/26 10:13:14;;;;;;;2.28;0.85;;;22.30;99.90;;;;;;5052269;28;20519;-73
2022/08/26 10:15:43;;;;;;;0.10;0.10;;;22.40;99.90;;;;;;5053152;28;20041;-72
2022/08/26 10:18:14;;;;;;;4.35;1.63;;;22.60;99.90;;;;;;5053150;28;20059;-72
2022/08/26 10:20:48;;;;;;;1.35;0.65;;;22.70;99.90;;;;;;5052792;28;20056;-72
2022/08/26 10:23:21;;;;;;;0.20;0.20;;;22.70;99.90;;;;;;5052713;28;20450;-73
2022/08/26 10:26:12;;;;;;;0.00;0.00;;;22.90;99.90;;;;;;5050109;28;20045;-72
2022/08/26 10:29:05;;;;;;;0.70;0.40;;;23.20;99.90;;;;;;5052712;28;20504;-74
2022/08/26 10:31:39;;;;;;;0.60;0.52;;;23.70;99.90;;;;;;5027655;28;20052;-73
2022/08/26 10:34:07;;;;;;;0.15;0.13;;;23.90;99.90;;;;;;5013163;28;20499;-74
2022/08/26 10:36:50;;;;;;;5.38;0.68;;;23.90;99.90;;;;;;5015570;28;20152;-74
2022/08/26 10:39:26;;;;;;;0.00;0.00;;;24.00;99.90;;;;;;5013165;28;20095;-73
2022/08/26 10:41:57;;;;;;;0.82;0.52;;;23.20;99.90;;;;;;5028981;28;20054;-74
2022/08/26 10:44:24;;;;;;;0.10;0.10;;;22.80;99.90;;;;;;5032758;28;20419;-74
2022/08/26 10:46:56;;;;;;;0.08;0.08;;;22.80;99.90;;;;;;5032595;28;20042;-74
2022/08/26 10:49:22;;;;;;;0.15;0.15;;;22.70;99.90;;;;;;5032565;28;20045;-75
2022/08/26 10:52:00;;;;;;;0.00;0.00;;;22.80;99.90;;;;;;5032509;28;20048;-74
2022/08/26 10:54:42;;;;;;;0.32;0.28;;;22.60;99.90;;;;;;5041711;28;20049;-73
2022/08/26 10:57:39;;;;;;;0.10;0.10;;;23.40;99.90;;;;;;5052028;28;20061;-75
2022/08/26 11:03:52;;;;;;;0.55;0.32;;;22.30;99.90;;;;;;5021538;28;20075;-71
2022/08/26 11:06:18;;;;;;;0.32;0.32;;;22.30;99.90;;;;;;5052153;28;20048;-73
2022/08/26 11:08:49;;;;;;;0.63;0.55;;;22.50;99.90;;;;;;5047432;28;20045;-73
2022/08/26 11:11:37;;;;;;;0.00;0.00;;;22.70;99.90;;;;;;5032193;28;20081;-73
2022/08/26 11:14:18;;;;;;;0.25;0.20;;;23.00;99.90;;;;;;5032256;28;20407;-74
2022/08/26 11:16:47;;;;;;;0.28;0.20;;;23.40;99.90;;;;;;5031389;28;20041;-73
2022/08/26 11:19:38;;;;;;;0.98;0.68;;;23.30;99.90;;;;;;5031790;28;20037;-73
2022/08/26 11:22:31;;;;;;;0.63;0.22;;;23.60;99.90;;;;;;5031310;28;20076;-73
2022/08/26 11:24:57;;;;;;;0.00;0.00;;;23.80;99.90;;;;;;5031917;28;20045;-73
2022/08/26 11:27:23;;;;;;;0.30;0.17;;;23.70;99.90;;;;;;5031943;28;20064;-73
2022/08/26 11:30:26;;;;;;;1.45;0.40;;;23.80;99.90;;;;;;5031754;28;20049;-73
2022/08/26 11:32:56;;;;;;;0.15;0.15;;;23.50;99.90;;;;;;5033002;28;20045;-74
2022/08/26 11:35:23;;;;;;;2.17;0.68;;;23.10;99.90;;;;;;5033646;28;20045;-73
2022/08/26 11:38:17;;;;;;;0.25;0.22;;;22.80;99.90;;;;;;5030137;28;20053;-73
2022/08/26 11:40:42;;;;;;;0.40;0.32;;;22.70;99.90;;;;;;5033714;28;20053;-72
2022/08/26 11:43:19;;;;;;;0.20;0.20;;;22.40;99.90;;;;;;5030339;28;20100;-73
2022/08/26 11:46:16;;;;;;;1.17;0.80;;;22.20;99.90;;;;;;5030301;28;20103;-71
2022/08/26 11:48:42;;;;;;;;;;;22.20;99.90;;;;;;5010940;28;20057;-73
2022/08/26 11:51:20;;;;;;;0.32;0.32;;;22.30;99.90;;;;;;5022241;28;20330;-72
2022/08/26 11:53:45;;;;;;;0.30;0.28;;;22.20;99.90;;;;;;5023845;28;20527;-73
2022/08/26 11:56:23;;;;;;;0.65;0.45;;;22.30;99.90;;;;;;5021981;28;20042;-74
2022/08/26 11:58:52;;;;;;;3.97;0.70;;;22.20;99.90;;;;;;5023511;28;20044;-73
2022/08/26 12:01:27;;;;;;;0.00;0.00;;;22.30;99.90;;;;;;5028347;28;20160;-72
2022/08/26 12:03:53;;;;;;;0.00;0.00;;;22.50;99.90;;;;;;5033416;28;20041;-74
2022/08/26 12:06:26;;;;;;;0.32;0.25;;;22.80;99.90;;;;;;5028065;28;20064;-73
2022/08/26 12:08:55;;;;;;;0.35;0.25;;;23.20;99.90;;;;;;5032946;28;20057;-75
2022/08/26 12:11:26;;;;;;;0.05;0.05;;;23.40;99.90;;;;;;5014710;28;20053;-73
2022/08/26 12:14:19;;;;;;;0.32;0.22;;;23.70;99.90;;;;;;5033303;28;20045;-74
2022/08/26 12:16:45;;;;;;;0.75;0.52;;;23.40;99.90;;;;;;5035244;28;20589;-72
2022/08/26 12:19:21;;;;;;;2.92;0.47;;;23.40;99.90;;;;;;5035073;28;20045;-73
2022/08/26 12:21:47;;;;;;;;;;;23.30;99.90;;;;;;5033695;28;20041;-74
2022/08/26 12:24:17;;;;;;;0.28;0.28;;;23.30;99.90;;;;;;5034442;28;20018;-72
2022/08/26 12:26:43;;;;;;;0.30;0.30;;;23.10;99.90;;;;;;5034516;28;20057;-74
2022/08/26 12:29:26;;;;;;;0.55;0.55;;;23.20;99.90;;;;;;5034166;28;20140;-72
2022/08/26 12:32:13;;;;;;;0.00;0.00;;;23.10;99.90;;;;;;5032813;28;20052;-74
2022/08/26 12:34:44;;;;;;;0.30;0.20;;;22.60;99.90;;;;;;5035251;28;20053;-73
2022/08/26 12:37:12;;;;;;;0.43;0.40;;;22.40;99.90;;;;;;5033906;28;20081;-73
2022/08/26 12:39:41;;;;;;;0.17;0.17;;;22.10;99.90;;;;;;5033725;28;20054;-72
2022/08/26 12:42:14;;;;;;;0.68;0.32;;;21.90;99.90;;;;;;5030027;28;20041;-73
2022/08/26 12:44:57;;;;;;;0.52;0.43;;;21.80;99.90;;;;;;5031295;28;20053;-74
2022/08/26 12:47:27;;;;;;;0.22;0.22;;;21.80;99.90;;;;;;5038263;28;20442;-72
2022/08/26 12:50:18;;;;;;;0.17;0.17;;;21.80;99.90;;;;;;5051161;28;20124;-73
2022/08/26 12:52:56;;;;;;;0.00;0.00;;;22.00;99.90;;;;;;5051014;28;20057;-72
2022/08/26 12:55:30;;;;;;;0.22;0.10;;;22.00;99.90;;;;;;5051108;28;20049;-73
2022/08/26 12:58:11;;;;;;;0.25;0.25;;;22.00;99.90;;;;;;5033194;28;20392;-73
2022/08/26 13:00:39;;;;;;;0.38;0.38;;;21.90;99.90;;;;;;5030791;28;20125;-72
2022/08/26 13:03:27;;;;;;;1.17;1.02;;;21.80;99.90;;;;;;5031254;28;20064;-71
2022/08/26 13:05:53;;;;;;;0.30;0.10;;;21.70;99.90;;;;;;5031846;28;20057;-72
2022/08/26 13:08:26;;;;;;;1.85;1.15;;;21.60;99.90;;;;;;5013544;28;20056;-71
2022/08/26 13:11:23;;;;;;;0.60;0.60;;;21.10;99.90;;;;;;5014057;28;20073;-72
2022/08/26 13:13:53;;;;;;;0.63;0.63;;;20.90;99.90;;;;;;5014902;28;20049;-73
2022/08/26 13:16:20;;;;;;;0.10;0.10;;;20.70;99.90;;;;;;5031322;28;20447;-73